Time;durP1;ratioP1;P1;durP2;ratioP2;P2;SDS_P1;SDS_P2;PMS_P1;PMS_P2;Temp;Humidity;BMP_temperature;BMP_pressure;BME280_temperature;BME280_humidity;BME280_pressure;Samples;Min_cycle;Max_cycle;Signal;HPM_P1;HPM_P2
2022/03/04 00:00:24;;;;;;;7.95;4.78;;;20.70;43.70;;;;;;4991905;28;20050;-76
2022/03/04 00:02:50;;;;;;;8.98;4.82;;;20.70;43.60;;;;;;4992637;28;20030;-76
2022/03/04 00:05:16;;;;;;;9.02;4.70;;;20.70;43.60;;;;;;4991645;28;20045;-76
2022/03/04 00:07:42;;;;;;;8.18;4.40;;;20.70;43.60;;;;;;4991312;28;20030;-75
2022/03/04 00:10:07;;;;;;;7.35;4.20;;;20.70;44.30;;;;;;4990572;28;20092;-75
2022/03/04 00:12:33;;;;;;;7.72;4.40;;;20.70;43.60;;;;;;4992360;28;20026;-76
2022/03/04 00:14:59;;;;;;;7.57;4.47;;;20.70;43.60;;;;;;4991299;28;20538;-76
2022/03/04 00:17:24;;;;;;;7.43;4.32;;;20.70;43.60;;;;;;4992496;28;20488;-75
2022/03/04 00:19:50;;;;;;;8.07;4.60;;;20.70;43.70;;;;;;4990452;28;20037;-76
2022/03/04 00:22:16;;;;;;;7.70;4.55;;;20.70;43.80;;;;;;4991064;28;20065;-77
2022/03/04 00:24:41;;;;;;;7.68;4.40;;;20.70;43.70;;;;;;4992113;28;20022;-76
2022/03/04 00:27:07;;;;;;;8.27;4.63;;;20.70;43.60;;;;;;4992408;28;20034;-75
2022/03/04 00:29:33;;;;;;;6.47;4.00;;;20.70;43.60;;;;;;4990197;28;20031;-76
2022/03/04 00:31:58;;;;;;;7.75;4.00;;;20.70;43.60;;;;;;4991295;28;20070;-76
2022/03/04 00:34:25;;;;;;;9.65;4.45;;;20.70;43.60;;;;;;4992802;28;20113;-75
2022/03/04 00:36:51;;;;;;;7.90;4.32;;;20.70;43.70;;;;;;4992332;28;20029;-75
2022/03/04 00:39:17;;;;;;;6.38;4.28;;;20.70;43.70;;;;;;4991784;28;20026;-76
2022/03/04 00:41:43;;;;;;;6.63;3.75;;;20.70;43.70;;;;;;4990513;28;20026;-75
2022/03/04 00:44:09;;;;;;;9.07;4.75;;;20.70;43.70;;;;;;4991927;28;20073;-75
2022/03/04 00:46:36;;;;;;;6.88;4.28;;;20.70;43.70;;;;;;4990732;28;20034;-76
2022/03/04 00:49:03;;;;;;;7.65;4.00;;;20.70;43.80;;;;;;4991357;28;20117;-76
2022/03/04 00:51:29;;;;;;;7.22;3.75;;;20.70;43.70;;;;;;4991054;28;20443;-75
2022/03/04 00:53:54;;;;;;;7.03;4.45;;;20.70;44.30;;;;;;4990624;28;20042;-76
2022/03/04 00:56:20;;;;;;;6.00;3.75;;;20.70;43.80;;;;;;4990825;28;20042;-77
2022/03/04 00:58:46;;;;;;;6.32;3.70;;;20.70;43.70;;;;;;4991898;28;20038;-75
2022/03/04 01:01:12;;;;;;;7.05;4.20;;;20.70;43.80;;;;;;4990890;28;20026;-75
2022/03/04 01:03:38;;;;;;;7.03;3.78;;;20.70;43.80;;;;;;4995177;28;20026;-76
2022/03/04 01:06:05;;;;;;;6.82;3.90;;;20.70;43.80;;;;;;4998358;28;20102;-76
2022/03/04 01:08:31;;;;;;;6.30;3.70;;;20.60;43.80;;;;;;4998228;28;20083;-75
2022/03/04 01:10:57;;;;;;;5.93;3.78;;;20.60;43.70;;;;;;4997629;28;20109;-76
2022/03/04 01:13:23;;;;;;;7.30;3.85;;;20.70;43.80;;;;;;4998126;28;20038;-76
2022/03/04 01:15:49;;;;;;;7.13;4.10;;;20.70;43.80;;;;;;4998486;28;20040;-75
2022/03/04 01:18:15;;;;;;;5.15;3.13;;;20.70;43.80;;;;;;4998483;28;20026;-76
2022/03/04 01:20:40;;;;;;;7.28;3.92;;;20.70;43.80;;;;;;4996067;28;20032;-76
2022/03/04 01:23:07;;;;;;;6.60;3.85;;;20.70;43.90;;;;;;4998181;28;20026;-76
2022/03/04 01:25:33;;;;;;;5.72;3.40;;;20.70;43.70;;;;;;4996898;28;20026;-76
2022/03/04 01:27:59;;;;;;;7.05;3.80;;;20.70;43.80;;;;;;4998065;28;20093;-76
2022/03/04 01:30:25;;;;;;;6.45;3.55;;;20.70;43.80;;;;;;4995857;28;20022;-75
2022/03/04 01:32:51;;;;;;;7.40;3.92;;;20.70;43.70;;;;;;4998073;28;20551;-76
2022/03/04 01:35:17;;;;;;;6.93;4.00;;;20.70;43.80;;;;;;4997884;28;20053;-76
2022/03/04 01:37:43;;;;;;;5.95;3.83;;;20.70;43.70;;;;;;4998047;28;20048;-76
2022/03/04 01:40:10;;;;;;;7.53;4.13;;;20.70;43.80;;;;;;4997259;28;20059;-75
2022/03/04 01:42:37;;;;;;;5.07;3.65;;;20.70;43.80;;;;;;4997794;28;20034;-76
2022/03/04 01:45:06;;;;;;;6.55;3.42;;;20.70;43.80;;;;;;4980428;28;20483;-76
2022/03/04 01:47:33;;;;;;;5.65;3.53;;;20.70;43.80;;;;;;4997829;28;20472;-76
2022/03/04 01:49:59;;;;;;;4.93;3.25;;;20.70;43.80;;;;;;4995911;28;20034;-76
2022/03/04 01:52:25;;;;;;;6.05;3.78;;;20.70;43.90;;;;;;4997956;28;20034;-76
2022/03/04 01:54:50;;;;;;;6.18;3.72;;;20.70;43.90;;;;;;4997606;28;20474;-76
2022/03/04 01:57:16;;;;;;;5.85;3.88;;;20.60;43.90;;;;;;4997937;28;20061;-76
2022/03/04 01:59:42;;;;;;;6.95;3.78;;;20.70;43.80;;;;;;4997284;28;20030;-76
2022/03/04 02:02:10;;;;;;;7.20;3.67;;;20.70;43.90;;;;;;4997855;28;20026;-76
2022/03/04 02:04:36;;;;;;;6.90;4.07;;;20.60;43.70;;;;;;4997739;28;20475;-75
2022/03/04 02:07:03;;;;;;;5.90;3.40;;;20.60;43.90;;;;;;4997872;28;20049;-75
2022/03/04 02:09:29;;;;;;;6.88;3.28;;;20.60;43.90;;;;;;4995735;28;20026;-75
2022/03/04 02:11:54;;;;;;;6.95;3.78;;;20.60;43.90;;;;;;4997424;28;20407;-75
2022/03/04 02:14:20;;;;;;;6.72;3.67;;;20.60;43.80;;;;;;4996755;28;20066;-75
2022/03/04 02:16:51;;;;;;;7.88;3.90;;;20.60;43.90;;;;;;4994514;28;20035;-75
2022/03/04 02:19:18;;;;;;;7.32;3.90;;;20.60;43.80;;;;;;4993280;28;20042;-76
2022/03/04 02:21:54;;;;;;;6.00;3.75;;;20.60;44.00;;;;;;4994236;28;20031;-75
2022/03/04 02:24:22;;;;;;;6.40;3.78;;;20.60;43.80;;;;;;4994395;28;20072;-75
2022/03/04 02:26:49;;;;;;;6.50;3.85;;;20.70;43.90;;;;;;4994451;28;20026;-75
2022/03/04 02:29:15;;;;;;;6.10;3.60;;;20.60;44.00;;;;;;4994415;28;20030;-75
2022/03/04 02:31:41;;;;;;;6.28;3.58;;;20.60;44.00;;;;;;4993759;28;20037;-75
2022/03/04 02:34:07;;;;;;;6.88;3.72;;;20.60;44.00;;;;;;4994519;28;20349;-76
2022/03/04 02:36:33;;;;;;;6.93;3.83;;;20.60;43.90;;;;;;4994241;28;20487;-76
2022/03/04 02:38:59;;;;;;;6.20;3.45;;;20.60;44.00;;;;;;4976979;28;20038;-75
2022/03/04 02:41:25;;;;;;;6.70;3.95;;;20.60;43.90;;;;;;4992161;28;20034;-75
2022/03/04 02:43:51;;;;;;;6.38;3.63;;;20.70;43.90;;;;;;4994177;28;20026;-76
2022/03/04 02:46:17;;;;;;;7.22;3.88;;;20.70;43.80;;;;;;4992998;28;20030;-75
2022/03/04 02:48:45;;;;;;;7.13;3.92;;;20.70;44.00;;;;;;4994178;28;20030;-75
2022/03/04 02:51:11;;;;;;;5.55;3.53;;;20.60;43.90;;;;;;4992948;28;20442;-76
2022/03/04 02:53:36;;;;;;;6.10;3.60;;;20.60;43.90;;;;;;4994052;28;20038;-75
2022/03/04 02:56:03;;;;;;;7.32;3.97;;;20.60;44.00;;;;;;4992577;28;20125;-76
2022/03/04 02:58:28;;;;;;;6.78;3.65;;;20.60;44.00;;;;;;4960723;28;20091;-76
2022/03/04 03:00:55;;;;;;;6.75;3.55;;;20.60;44.00;;;;;;4993094;28;20030;-76
2022/03/04 03:03:21;;;;;;;7.60;3.65;;;20.60;43.90;;;;;;4993858;28;20065;-76
2022/03/04 03:05:47;;;;;;;6.55;3.75;;;20.60;44.00;;;;;;4993538;28;20050;-75
2022/03/04 03:08:13;;;;;;;7.28;3.92;;;20.60;44.00;;;;;;4992718;28;20085;-75
2022/03/04 03:10:41;;;;;;;6.22;3.88;;;20.60;44.00;;;;;;4991637;28;20026;-76
2022/03/04 03:13:07;;;;;;;6.97;3.72;;;20.60;44.00;;;;;;4992776;28;20084;-75
2022/03/04 03:15:34;;;;;;;7.63;3.95;;;20.60;44.00;;;;;;4992414;28;20033;-75
2022/03/04 03:17:59;;;;;;;6.53;4.03;;;20.60;44.50;;;;;;4992334;28;20479;-76
2022/03/04 03:20:26;;;;;;;7.72;3.75;;;20.60;43.90;;;;;;4992481;28;20038;-75
2022/03/04 03:22:51;;;;;;;6.43;3.53;;;20.60;44.00;;;;;;4993480;28;20121;-76
2022/03/04 03:25:17;;;;;;;6.05;4.03;;;20.60;43.90;;;;;;4993370;28;20415;-75
2022/03/04 03:27:43;;;;;;;6.82;3.55;;;20.60;44.00;;;;;;4992313;28;20026;-75
2022/03/04 03:30:10;;;;;;;5.68;3.50;;;20.60;44.00;;;;;;4992582;28;20026;-76
2022/03/04 03:32:35;;;;;;;6.80;3.75;;;20.60;44.00;;;;;;4993112;28;20030;-75
2022/03/04 03:35:01;;;;;;;6.65;3.65;;;20.60;43.90;;;;;;4975633;28;20037;-76
2022/03/04 03:37:27;;;;;;;6.75;3.60;;;20.60;44.10;;;;;;4992045;28;20035;-76
2022/03/04 03:39:53;;;;;;;7.70;3.75;;;20.60;43.90;;;;;;4992230;28;20034;-75
2022/03/04 03:42:19;;;;;;;6.00;3.78;;;20.60;44.00;;;;;;4975643;28;20057;-76
2022/03/04 03:44:44;;;;;;;7.65;3.85;;;20.60;44.00;;;;;;4993010;28;20023;-76
2022/03/04 03:47:10;;;;;;;6.45;3.80;;;20.60;43.90;;;;;;4991811;28;20548;-76
2022/03/04 03:49:37;;;;;;;8.18;3.63;;;20.60;44.00;;;;;;4974624;28;20069;-75
2022/03/04 03:52:03;;;;;;;6.15;3.17;;;20.60;44.10;;;;;;4991578;28;20038;-75
2022/03/04 03:54:29;;;;;;;5.88;3.40;;;20.60;44.10;;;;;;4991585;28;20026;-76
2022/03/04 03:56:55;;;;;;;6.70;3.72;;;20.60;44.10;;;;;;4992593;28;20036;-76
2022/03/04 03:59:20;;;;;;;7.18;4.00;;;20.60;43.90;;;;;;4991069;28;20034;-75
2022/03/04 04:01:46;;;;;;;6.65;3.70;;;20.60;44.00;;;;;;4992285;28;20487;-76
2022/03/04 04:04:12;;;;;;;6.47;3.78;;;20.60;44.00;;;;;;4992749;28;20456;-76
2022/03/04 04:06:39;;;;;;;7.72;3.80;;;20.60;44.10;;;;;;4992460;28;20033;-76
2022/03/04 04:09:06;;;;;;;5.82;3.50;;;20.60;44.10;;;;;;4991409;28;20060;-75
2022/03/04 04:11:37;;;;;;;5.63;3.30;;;20.60;44.10;;;;;;4991828;28;20034;-75
2022/03/04 04:14:04;;;;;;;6.45;3.42;;;20.60;44.10;;;;;;4992740;28;20034;-75
2022/03/04 04:16:30;;;;;;;7.78;3.90;;;20.60;44.10;;;;;;4992348;28;20030;-76
2022/03/04 04:18:56;;;;;;;6.45;3.42;;;20.60;44.00;;;;;;4992242;28;20091;-75
2022/03/04 04:21:24;;;;;;;5.15;3.20;;;20.60;44.10;;;;;;4991548;28;20041;-76
2022/03/04 04:23:50;;;;;;;6.25;3.40;;;20.60;44.10;;;;;;4975226;28;20286;-75
2022/03/04 04:26:16;;;;;;;6.28;3.65;;;20.60;44.10;;;;;;4991243;28;20030;-76
2022/03/04 04:28:42;;;;;;;7.28;3.55;;;20.60;44.20;;;;;;4991417;28;20041;-76
2022/03/04 04:31:07;;;;;;;6.05;3.63;;;20.60;44.20;;;;;;4991423;28;20030;-75
2022/03/04 04:33:33;;;;;;;7.93;3.75;;;20.60;44.10;;;;;;4992508;28;20034;-75
2022/03/04 04:35:59;;;;;;;6.38;3.38;;;20.60;44.20;;;;;;4991997;28;20104;-75
2022/03/04 04:38:25;;;;;;;7.63;3.65;;;20.60;44.20;;;;;;4990607;28;20030;-76
2022/03/04 04:40:50;;;;;;;6.50;3.60;;;20.60;44.10;;;;;;4991243;28;20295;-75
2022/03/04 04:43:16;;;;;;;7.72;3.88;;;20.60;44.10;;;;;;4974748;28;20034;-76
2022/03/04 04:45:42;;;;;;;6.03;3.45;;;20.60;44.20;;;;;;4974853;28;20057;-75
2022/03/04 04:48:07;;;;;;;5.53;3.35;;;20.60;44.20;;;;;;4992030;28;20034;-75
2022/03/04 04:50:33;;;;;;;7.07;3.70;;;20.60;44.20;;;;;;4991338;28;20026;-75
2022/03/04 04:52:59;;;;;;;6.95;3.85;;;20.60;44.20;;;;;;4990630;28;20450;-76
2022/03/04 04:55:25;;;;;;;6.40;3.35;;;20.60;44.20;;;;;;4990555;28;20045;-75
2022/03/04 04:57:50;;;;;;;5.85;3.30;;;20.60;44.20;;;;;;4991902;28;20034;-76
2022/03/04 05:00:17;;;;;;;5.53;3.20;;;20.60;44.10;;;;;;4991057;28;20664;-75
2022/03/04 05:02:44;;;;;;;7.57;3.53;;;20.60;44.00;;;;;;4974352;28;20526;-76
2022/03/04 05:05:10;;;;;;;7.07;3.45;;;20.60;44.10;;;;;;4990732;28;20105;-76
2022/03/04 05:07:36;;;;;;;7.13;3.28;;;20.60;44.10;;;;;;4991678;28;20157;-76
2022/03/04 05:10:04;;;;;;;6.55;3.60;;;20.60;44.10;;;;;;4990961;28;20096;-76
2022/03/04 05:12:30;;;;;;;6.60;3.60;;;20.60;44.10;;;;;;4991721;28;20056;-76
2022/03/04 05:14:56;;;;;;;6.28;3.72;;;20.60;44.10;;;;;;4991626;28;20037;-76
2022/03/04 05:17:22;;;;;;;6.78;3.63;;;20.60;44.10;;;;;;4991527;28;20109;-76
2022/03/04 05:19:47;;;;;;;6.20;3.38;;;20.60;44.20;;;;;;4991009;28;20118;-77
2022/03/04 05:22:13;;;;;;;6.63;3.38;;;20.60;44.20;;;;;;4991510;28;20038;-76
2022/03/04 05:24:39;;;;;;;6.43;3.35;;;20.60;44.20;;;;;;4991790;28;20019;-76
2022/03/04 05:27:05;;;;;;;7.38;3.75;;;20.60;44.20;;;;;;4990458;28;20029;-76
2022/03/04 05:29:31;;;;;;;5.53;3.35;;;20.60;44.20;;;;;;4990759;28;20022;-76
2022/03/04 05:31:57;;;;;;;7.05;3.55;;;20.50;44.20;;;;;;4990326;28;20034;-76
2022/03/04 05:34:23;;;;;;;7.68;3.47;;;20.50;44.20;;;;;;4991483;28;20034;-76
2022/03/04 05:36:48;;;;;;;7.28;3.80;;;20.60;44.10;;;;;;4991460;28;20097;-76
2022/03/04 05:39:14;;;;;;;6.55;3.50;;;20.60;44.30;;;;;;4990155;28;20029;-76
2022/03/04 05:41:41;;;;;;;6.22;3.60;;;20.50;44.10;;;;;;4973517;28;20037;-76
2022/03/04 05:44:07;;;;;;;7.10;3.72;;;20.50;44.10;;;;;;4990305;28;20582;-76
2022/03/04 05:46:33;;;;;;;7.82;3.85;;;20.50;44.20;;;;;;4990366;28;20126;-76
2022/03/04 05:48:59;;;;;;;6.05;3.20;;;20.50;44.20;;;;;;4991495;28;20058;-75
2022/03/04 05:51:25;;;;;;;6.22;3.50;;;20.50;44.10;;;;;;4993078;28;20088;-76
2022/03/04 05:53:51;;;;;;;7.18;3.70;;;20.50;44.20;;;;;;4994000;28;20030;-76
2022/03/04 05:56:18;;;;;;;5.90;3.47;;;20.50;44.20;;;;;;4993633;28;20034;-76
2022/03/04 05:58:44;;;;;;;5.68;3.40;;;20.50;44.20;;;;;;4993932;28;20056;-76
2022/03/04 06:01:09;;;;;;;7.93;3.67;;;20.50;44.20;;;;;;4992806;28;20546;-76
2022/03/04 06:03:36;;;;;;;5.38;3.15;;;20.50;44.20;;;;;;4994735;28;20030;-76
2022/03/04 06:06:02;;;;;;;5.05;3.10;;;20.50;44.20;;;;;;4995076;28;20117;-76
2022/03/04 06:08:28;;;;;;;7.28;3.72;;;20.50;44.80;;;;;;4993689;28;20026;-76
2022/03/04 06:10:54;;;;;;;8.10;3.95;;;20.50;44.20;;;;;;4993389;28;20026;-76
2022/03/04 06:13:20;;;;;;;5.72;3.20;;;20.50;44.20;;;;;;4977458;28;20027;-76
2022/03/04 06:15:45;;;;;;;5.90;3.50;;;20.50;44.20;;;;;;4995099;28;20479;-76
2022/03/04 06:18:11;;;;;;;6.45;3.70;;;20.50;44.20;;;;;;4994643;28;20467;-76
2022/03/04 06:20:37;;;;;;;5.75;3.47;;;20.50;44.20;;;;;;4993772;28;20026;-76
2022/03/04 06:23:03;;;;;;;6.05;3.55;;;20.50;44.10;;;;;;4994466;28;20034;-76
2022/03/04 06:25:28;;;;;;;5.75;3.40;;;20.50;44.30;;;;;;4994496;28;20034;-76
2022/03/04 06:27:59;;;;;;;6.45;3.75;;;20.50;44.20;;;;;;4993397;28;20493;-76
2022/03/04 06:30:28;;;;;;;5.05;3.15;;;20.60;44.30;;;;;;4993886;28;20034;-76
2022/03/04 06:33:30;;;;;;;5.97;3.45;;;20.50;44.30;;;;;;4993007;28;20081;-76
2022/03/04 06:35:42;;;;;;;6.45;3.88;;;20.50;44.30;;;;;;4994186;28;20443;-76
2022/03/04 06:38:08;;;;;;;7.75;3.88;;;20.50;44.30;;;;;;4992959;28;20038;-76
2022/03/04 06:40:34;;;;;;;7.18;3.60;;;20.50;44.20;;;;;;4992134;28;20034;-76
2022/03/04 06:42:59;;;;;;;5.82;3.22;;;20.50;44.30;;;;;;4992846;28;20038;-76
2022/03/04 06:45:25;;;;;;;7.55;3.60;;;20.50;44.20;;;;;;4976559;28;20069;-76
2022/03/04 06:47:51;;;;;;;5.43;3.33;;;20.50;44.30;;;;;;4992854;28;20088;-76
2022/03/04 06:50:17;;;;;;;6.25;3.40;;;20.50;44.30;;;;;;4992470;28;20038;-76
2022/03/04 06:52:43;;;;;;;5.95;3.17;;;20.50;44.30;;;;;;4992896;28;20105;-76
2022/03/04 06:55:10;;;;;;;5.25;3.10;;;20.50;44.30;;;;;;4993693;28;20510;-75
2022/03/04 06:57:36;;;;;;;7.10;3.60;;;20.50;44.30;;;;;;4992868;28;20547;-76
2022/03/04 07:00:07;;;;;;;5.38;3.47;;;20.50;44.30;;;;;;4993222;28;20494;-76
2022/03/04 07:02:34;;;;;;;5.80;3.20;;;20.50;44.30;;;;;;4993456;28;20109;-75
2022/03/04 07:05:04;;;;;;;5.93;3.50;;;20.50;44.30;;;;;;4993768;28;20531;-76
2022/03/04 07:07:30;;;;;;;5.57;3.35;;;20.50;44.30;;;;;;4993585;28;20498;-76
2022/03/04 07:09:56;;;;;;;7.57;3.45;;;20.50;44.30;;;;;;4992882;28;20026;-76
2022/03/04 07:12:21;;;;;;;7.15;3.58;;;20.50;44.30;;;;;;4976142;28;20149;-76
2022/03/04 07:14:47;;;;;;;6.72;3.42;;;20.50;44.30;;;;;;4992752;28;20041;-76
2022/03/04 07:17:14;;;;;;;5.60;3.13;;;20.50;44.30;;;;;;4993590;28;20491;-75
2022/03/04 07:19:40;;;;;;;5.55;3.05;;;20.50;44.30;;;;;;4992771;28;20034;-76
2022/03/04 07:22:06;;;;;;;5.63;3.22;;;20.50;44.40;;;;;;4992181;28;20026;-76
2022/03/04 07:24:32;;;;;;;7.30;3.30;;;20.50;44.30;;;;;;4993318;28;20030;-76
2022/03/04 07:26:58;;;;;;;5.75;3.20;;;20.50;44.30;;;;;;4993355;28;20076;-76
2022/03/04 07:29:26;;;;;;;6.50;3.53;;;20.50;44.30;;;;;;4992657;28;20022;-76
2022/03/04 07:31:53;;;;;;;6.68;3.70;;;20.50;44.20;;;;;;4992291;28;20030;-76
2022/03/04 07:34:20;;;;;;;6.15;3.15;;;20.50;44.10;;;;;;4976323;28;20097;-76
2022/03/04 07:36:46;;;;;;;5.93;3.22;;;20.50;44.20;;;;;;4993375;28;20030;-75
2022/03/04 07:39:12;;;;;;;5.80;3.25;;;20.50;44.30;;;;;;4993166;28;20085;-76
2022/03/04 07:41:38;;;;;;;6.70;3.53;;;20.50;44.20;;;;;;4992563;28;20031;-76
2022/03/04 07:44:04;;;;;;;6.47;3.15;;;20.50;44.30;;;;;;4993043;28;20028;-76
2022/03/04 07:46:32;;;;;;;5.53;3.08;;;20.50;44.30;;;;;;4993374;28;20061;-76
2022/03/04 07:48:58;;;;;;;6.50;3.20;;;20.50;44.30;;;;;;4993035;28;20080;-76
2022/03/04 07:51:24;;;;;;;5.00;3.05;;;20.50;44.30;;;;;;4975271;28;20041;-76
2022/03/04 07:53:49;;;;;;;5.50;3.35;;;20.50;44.30;;;;;;4976060;28;20041;-76
2022/03/04 07:56:15;;;;;;;5.70;3.30;;;20.50;44.30;;;;;;4975870;28;20038;-76
2022/03/04 07:58:41;;;;;;;5.82;3.15;;;20.50;44.40;;;;;;4975925;28;20618;-75
2022/03/04 08:01:12;;;;;;;6.07;3.53;;;20.50;44.30;;;;;;4992547;28;20164;-75
2022/03/04 08:03:42;;;;;;;5.50;3.22;;;20.50;44.40;;;;;;4959782;28;20030;-76
2022/03/04 08:06:08;;;;;;;6.65;3.38;;;20.50;44.40;;;;;;4992064;28;20077;-75
2022/03/04 08:08:35;;;;;;;6.30;3.40;;;20.50;44.30;;;;;;4959977;28;20387;-75
2022/03/04 08:11:01;;;;;;;6.63;3.40;;;20.50;44.30;;;;;;4974810;28;20037;-76
2022/03/04 08:13:27;;;;;;;5.60;3.25;;;20.50;44.40;;;;;;4991516;28;20031;-76
2022/03/04 08:15:55;;;;;;;5.10;3.38;;;20.50;44.40;;;;;;4961123;28;20035;-75
2022/03/04 08:18:21;;;;;;;5.63;2.88;;;20.50;44.40;;;;;;4991419;28;20038;-75
2022/03/04 08:20:47;;;;;;;5.97;3.50;;;20.50;44.30;;;;;;4990557;28;20495;-76
2022/03/04 08:23:12;;;;;;;5.43;2.92;;;20.50;44.40;;;;;;4992887;28;20026;-76
2022/03/04 08:25:39;;;;;;;5.97;3.53;;;20.50;44.20;;;;;;4991469;28;20030;-75
2022/03/04 08:28:05;;;;;;;5.50;3.47;;;20.50;44.30;;;;;;4992903;28;20150;-75
2022/03/04 08:30:32;;;;;;;5.13;3.10;;;20.50;44.40;;;;;;4974373;28;20505;-76
2022/03/04 08:32:58;;;;;;;6.22;3.10;;;20.50;44.30;;;;;;4992405;28;20061;-76
2022/03/04 08:35:24;;;;;;;5.00;3.17;;;20.50;44.30;;;;;;4992851;28;20037;-76
2022/03/04 08:37:55;;;;;;;7.35;3.50;;;20.50;44.30;;;;;;4992810;28;20034;-75
2022/03/04 08:40:22;;;;;;;5.97;3.28;;;20.50;44.30;;;;;;4990624;28;20022;-75
2022/03/04 08:42:47;;;;;;;5.28;3.30;;;20.50;44.20;;;;;;4992503;28;20044;-76
2022/03/04 08:45:15;;;;;;;7.05;3.40;;;20.50;44.20;;;;;;4992326;28;20026;-76
2022/03/04 08:47:43;;;;;;;4.68;3.20;;;20.50;44.60;;;;;;4991083;28;20480;-75
2022/03/04 08:50:11;;;;;;;7.00;3.22;;;20.50;44.30;;;;;;4991561;28;20030;-75
2022/03/04 08:52:37;;;;;;;5.93;3.40;;;20.50;44.30;;;;;;4992347;28;20030;-76
2022/03/04 08:55:04;;;;;;;6.50;3.22;;;20.50;44.30;;;;;;4992296;28;20033;-76
2022/03/04 08:57:31;;;;;;;5.82;3.35;;;20.50;44.40;;;;;;4991226;28;20045;-76
2022/03/04 08:59:57;;;;;;;5.43;3.28;;;20.50;44.30;;;;;;4974696;28;20451;-76
2022/03/04 09:02:22;;;;;;;5.30;2.97;;;20.50;44.30;;;;;;4991549;28;20077;-75
2022/03/04 09:04:48;;;;;;;5.72;3.08;;;20.50;44.40;;;;;;4992457;28;20041;-76
2022/03/04 09:07:14;;;;;;;5.72;3.03;;;20.50;44.50;;;;;;4992084;28;20029;-76
2022/03/04 09:09:40;;;;;;;5.68;2.97;;;20.50;44.50;;;;;;4991305;28;20038;-76
2022/03/04 09:12:07;;;;;;;6.85;3.28;;;20.50;44.40;;;;;;4990941;28;20042;-76
2022/03/04 09:14:33;;;;;;;5.35;3.10;;;20.50;44.30;;;;;;4990566;28;20109;-76
2022/03/04 09:16:58;;;;;;;6.97;3.42;;;20.50;44.40;;;;;;4992080;28;20057;-75
2022/03/04 09:19:24;;;;;;;4.55;3.08;;;20.50;44.20;;;;;;4990399;28;20097;-77
2022/03/04 09:21:50;;;;;;;5.97;3.25;;;20.50;44.40;;;;;;4991878;28;20023;-75
2022/03/04 09:24:16;;;;;;;4.20;2.85;;;20.50;44.40;;;;;;4993343;28;20023;-76
2022/03/04 09:26:42;;;;;;;5.72;2.85;;;20.50;44.50;;;;;;4994641;28;20050;-76
2022/03/04 09:29:08;;;;;;;5.63;3.28;;;20.50;44.30;;;;;;4995914;28;20030;-76
2022/03/04 09:31:34;;;;;;;5.00;3.00;;;20.50;44.30;;;;;;4993916;28;20038;-76
2022/03/04 09:33:59;;;;;;;6.30;3.25;;;20.50;44.30;;;;;;4995611;28;20027;-75
2022/03/04 09:36:25;;;;;;;6.07;3.13;;;20.50;44.20;;;;;;4995613;28;20514;-76
2022/03/04 09:38:51;;;;;;;5.13;3.15;;;20.50;44.30;;;;;;4978297;28;20049;-76
2022/03/04 09:41:18;;;;;;;6.45;3.10;;;20.50;44.40;;;;;;4995016;28;20039;-76
2022/03/04 09:43:44;;;;;;;5.32;3.03;;;20.50;44.30;;;;;;4995473;28;20040;-76
2022/03/04 09:46:10;;;;;;;4.38;2.70;;;20.50;44.20;;;;;;4994124;28;20456;-76
2022/03/04 09:48:40;;;;;;;5.60;3.17;;;20.50;44.30;;;;;;4978192;28;20031;-75
2022/03/04 09:51:07;;;;;;;5.28;3.20;;;20.50;44.30;;;;;;4993501;28;20518;-75
2022/03/04 09:53:33;;;;;;;6.03;3.22;;;20.50;44.20;;;;;;4995519;28;20081;-74
2022/03/04 09:55:59;;;;;;;5.32;3.08;;;20.60;44.30;;;;;;4977833;28;20394;-74
2022/03/04 09:58:25;;;;;;;4.47;2.90;;;20.50;44.10;;;;;;4993877;28;20030;-74
2022/03/04 10:00:50;;;;;;;4.78;3.13;;;20.50;44.20;;;;;;4994337;28;20621;-75
2022/03/04 10:03:40;;;;;;;4.93;2.92;;;20.50;44.20;;;;;;4995493;28;20486;-75
2022/03/04 10:06:06;;;;;;;5.65;3.00;;;20.50;44.20;;;;;;4993592;28;20043;-74
2022/03/04 10:08:43;;;;;;;4.85;2.92;;;20.50;44.30;;;;;;4994129;28;20057;-75
2022/03/04 10:11:11;;;;;;;5.22;2.95;;;20.60;44.30;;;;;;4992769;28;20034;-74
2022/03/04 10:13:41;;;;;;;4.82;2.92;;;20.50;44.30;;;;;;4994971;28;20034;-75
2022/03/04 10:16:06;;;;;;;;;;;20.50;44.10;;;;;;4995309;28;20517;-74
2022/03/04 10:18:32;;;;;;;5.22;2.92;;;20.50;44.30;;;;;;4995018;28;19909;-76
2022/03/04 10:20:58;;;;;;;4.88;3.10;;;20.50;44.40;;;;;;4993789;28;20026;-75
2022/03/04 10:23:26;;;;;;;5.85;3.17;;;20.50;44.50;;;;;;4993934;28;20411;-76
2022/03/04 10:25:57;;;;;;;4.75;2.95;;;20.50;44.30;;;;;;4993614;28;20023;-75
2022/03/04 10:28:29;;;;;;;6.05;3.05;;;20.50;45.00;;;;;;4994162;28;20113;-76
2022/03/04 10:30:57;;;;;;;5.50;3.05;;;20.50;44.40;;;;;;4994666;28;20022;-76
2022/03/04 10:33:25;;;;;;;4.90;2.88;;;20.50;44.40;;;;;;4995614;28;20029;-76
2022/03/04 10:36:10;;;;;;;4.50;2.80;;;20.50;44.40;;;;;;4993131;28;20033;-75
2022/03/04 10:38:36;;;;;;;4.20;2.90;;;20.50;44.40;;;;;;4978111;28;20023;-76
2022/03/04 10:41:20;;;;;;;4.78;2.92;;;20.50;44.50;;;;;;4994428;28;20033;-76
2022/03/04 10:43:46;;;;;;;6.57;3.33;;;20.50;44.40;;;;;;4994984;28;20030;-76
2022/03/04 10:46:13;;;;;;;4.10;2.72;;;20.50;44.40;;;;;;4994936;28;20368;-76
2022/03/04 10:48:54;;;;;;;4.15;2.80;;;20.50;44.40;;;;;;4995175;28;20117;-76
2022/03/04 10:51:37;;;;;;;5.80;3.10;;;20.50;44.40;;;;;;4992627;28;20045;-76
2022/03/04 10:54:11;;;;;;;4.13;2.92;;;20.50;44.30;;;;;;4993692;28;20031;-76
2022/03/04 10:56:55;;;;;;;5.90;3.00;;;20.50;44.40;;;;;;4977142;28;20038;-76
2022/03/04 10:59:24;;;;;;;5.28;3.03;;;20.50;44.40;;;;;;4993937;28;20022;-73
2022/03/04 11:01:56;;;;;;;6.18;3.00;;;20.50;44.30;;;;;;4994294;28;20026;-76
2022/03/04 11:04:23;;;;;;;4.35;2.75;;;20.50;44.20;;;;;;4993445;28;20434;-76
2022/03/04 11:06:50;;;;;;;4.50;2.75;;;20.50;44.30;;;;;;4994306;28;20027;-74
2022/03/04 11:09:17;;;;;;;4.85;2.90;;;20.50;44.30;;;;;;4993830;28;20026;-76
2022/03/04 11:11:44;;;;;;;4.53;2.72;;;20.50;44.30;;;;;;4992618;28;20632;-76
2022/03/04 11:14:12;;;;;;;4.55;2.72;;;20.50;44.30;;;;;;4977052;28;20606;-76
2022/03/04 11:16:39;;;;;;;5.43;2.80;;;20.50;44.30;;;;;;4993344;28;20053;-77
2022/03/04 11:19:09;;;;;;;4.40;2.63;;;20.60;44.40;;;;;;4992826;28;20030;-76
2022/03/04 11:21:36;;;;;;;5.40;2.97;;;20.50;44.30;;;;;;4993050;28;20109;-77
2022/03/04 11:24:02;;;;;;;4.85;3.00;;;20.50;44.30;;;;;;4993272;28;20088;-77
2022/03/04 11:26:31;;;;;;;4.10;2.72;;;20.50;44.30;;;;;;4994206;28;20026;-75
2022/03/04 11:28:59;;;;;;;4.75;2.83;;;20.50;44.30;;;;;;4994280;28;20037;-75
2022/03/04 11:31:45;;;;;;;5.60;2.90;;;20.50;44.30;;;;;;4994451;28;20026;-75
2022/03/04 11:34:11;;;;;;;6.07;3.00;;;20.50;44.30;;;;;;4993622;28;20503;-76
2022/03/04 11:36:39;;;;;;;5.22;2.92;;;20.50;44.30;;;;;;4993080;28;20070;-76
2022/03/04 11:39:08;;;;;;;6.43;2.85;;;20.50;44.30;;;;;;4992489;28;20161;-76
2022/03/04 11:41:45;;;;;;;5.82;2.80;;;20.50;44.40;;;;;;4992833;28;20403;-76
2022/03/04 11:44:17;;;;;;;4.60;2.95;;;20.50;44.30;;;;;;4976196;28;20022;-76
2022/03/04 11:46:49;;;;;;;5.32;3.15;;;20.50;44.30;;;;;;4993354;28;20030;-75
2022/03/04 11:50:01;;;;;;;4.63;2.95;;;20.50;44.20;;;;;;4993708;28;20026;-75
2022/03/04 11:52:42;;;;;;;5.10;3.15;;;20.50;44.30;;;;;;4995037;28;20038;-75
2022/03/04 11:55:10;;;;;;;4.72;2.70;;;20.50;44.40;;;;;;4993415;28;20390;-75
2022/03/04 11:57:41;;;;;;;4.22;2.42;;;20.50;44.50;;;;;;4960915;28;20446;-75
2022/03/04 12:00:12;;;;;;;5.10;3.08;;;20.50;44.30;;;;;;4991717;28;20042;-75
2022/03/04 12:02:55;;;;;;;5.50;2.88;;;20.50;44.40;;;;;;4992357;28;20038;-76
2022/03/04 12:05:25;;;;;;;5.57;2.80;;;20.50;44.50;;;;;;4991606;28;20113;-76
2022/03/04 12:08:08;;;;;;;5.18;3.05;;;20.50;44.30;;;;;;4993349;28;20030;-76
2022/03/04 12:10:44;;;;;;;4.20;2.78;;;20.50;44.40;;;;;;4992369;28;20558;-75
2022/03/04 12:13:20;;;;;;;4.00;2.92;;;20.50;44.40;;;;;;4992632;28;20036;-75
2022/03/04 12:15:57;;;;;;;5.47;3.15;;;20.50;44.30;;;;;;4992723;28;20125;-75
2022/03/04 12:18:34;;;;;;;4.90;3.30;;;20.50;44.20;;;;;;4975340;28;20380;-76
2022/03/04 12:21:25;;;;;;;4.25;2.70;;;20.50;43.80;;;;;;4990327;28;20065;-75
2022/03/04 12:24:00;;;;;;;5.35;2.90;;;20.60;44.30;;;;;;4975494;28;20026;-75
2022/03/04 12:26:37;;;;;;;4.05;2.60;;;20.50;44.20;;;;;;4991013;28;20033;-75
2022/03/04 12:29:12;;;;;;;4.05;2.53;;;20.50;44.10;;;;;;4992315;28;20498;-75
2022/03/04 12:31:48;;;;;;;5.32;3.05;;;20.50;44.20;;;;;;4990366;28;20034;-76
2022/03/04 12:34:18;;;;;;;4.45;2.63;;;20.50;44.20;;;;;;4991099;28;20030;-75
2022/03/04 12:36:45;;;;;;;4.80;2.85;;;20.50;44.30;;;;;;4992103;28;20068;-75
2022/03/04 12:39:11;;;;;;;4.50;2.78;;;20.50;44.20;;;;;;4990917;28;20049;-75
2022/03/04 12:41:37;;;;;;;6.38;3.10;;;20.50;44.30;;;;;;4991327;28;20070;-76
2022/03/04 12:44:07;;;;;;;4.45;2.80;;;20.50;44.30;;;;;;4990911;28;20058;-75
2022/03/04 12:46:40;;;;;;;4.95;3.05;;;20.50;44.30;;;;;;4991034;28;20057;-75
2022/03/04 12:49:06;;;;;;;4.70;3.00;;;20.50;44.40;;;;;;4990973;28;20093;-76